Time;durP1;ratioP1;P1;durP2;ratioP2;P2;SDS_P1;SDS_P2;PMS_P1;PMS_P2;Temp;Humidity;BMP_temperature;BMP_pressure;BME280_temperature;BME280_humidity;BME280_pressure;Samples;Min_cycle;Max_cycle;Signal;HPM_P1;HPM_P2
2022/11/10 00:01:21;;;;;;;8.25;2.53;;;;;;;12.18;74.19;100618.56;10390725;28;20128;-68
2022/11/10 00:06:22;;;;;;;5.50;2.20;;;;;;;12.15;73.93;100618.09;10387946;28;20088;-68
2022/11/10 00:11:24;;;;;;;8.50;2.50;;;;;;;12.14;73.95;100627.19;10384543;28;20095;-68
2022/11/10 00:21:45;;;;;;;8.52;2.17;;;;;;;11.95;74.16;100650.03;10383499;28;20081;-68
2022/11/10 00:26:47;;;;;;;12.20;2.35;;;;;;;11.84;74.92;100656.66;10383444;28;20053;-68
2022/11/10 00:31:48;;;;;;;10.32;1.80;;;;;;;11.85;74.91;100661.88;10388824;28;20137;-68
2022/11/10 00:36:50;;;;;;;10.70;2.28;;;;;;;11.79;75.46;100659.88;10386284;28;20124;-67
2022/11/10 00:41:51;;;;;;;9.80;2.10;;;;;;;11.82;75.34;100664.06;10393807;28;20187;-68
2022/11/10 00:46:52;;;;;;;8.05;2.20;;;;;;;11.81;75.22;100675.84;10386683;28;20128;-68
2022/11/10 00:51:54;;;;;;;9.32;2.83;;;;;;;11.79;75.45;100683.25;10385846;28;20076;-68
2022/11/10 00:56:55;;;;;;;5.70;2.10;;;;;;;11.82;75.31;100693.69;10383793;28;20155;-67
2022/11/10 01:01:56;;;;;;;7.15;2.45;;;;;;;11.81;75.85;100702.78;10387099;28;20083;-68
2022/11/10 01:06:58;;;;;;;7.88;2.08;;;;;;;11.79;76.10;100711.06;10382492;28;20128;-68
2022/11/10 01:11:59;;;;;;;8.52;1.80;;;;;;;11.79;75.92;100716.44;10384418;28;20054;-68
2022/11/10 01:17:01;;;;;;;8.40;2.35;;;;;;;11.79;75.84;100716.44;10386117;28;20037;-67
2022/11/10 01:22:02;;;;;;;12.35;1.73;;;;;;;11.73;75.78;100713.59;10374124;28;20089;-68
2022/11/10 01:27:04;;;;;;;8.98;2.47;;;;;;;11.71;76.10;100719.19;10368687;28;20038;-68
2022/11/10 01:32:05;;;;;;;4.60;1.95;;;;;;;11.68;75.97;100739.19;10378884;28;20601;-68
2022/11/10 01:37:06;;;;;;;7.00;2.05;;;;;;;11.62;76.10;100739.88;10364957;28;20057;-68
2022/11/10 01:42:08;;;;;;;12.18;2.42;;;;;;;11.56;75.93;100737.88;10384825;28;20049;-67
2022/11/10 01:47:09;;;;;;;10.52;2.55;;;;;;;11.50;76.15;100743.97;10383265;28;20129;-67
2022/11/10 01:52:13;;;;;;;13.57;2.28;;;;;;;11.49;76.57;100748.53;10384391;28;20037;-68
2022/11/10 01:57:16;;;;;;;10.75;1.85;;;;;;;11.46;76.62;100754.22;10367252;28;20123;-67
2022/11/10 02:02:27;;;;;;;6.25;2.03;;;;;;;11.48;76.09;100754.06;10373558;28;20140;-67
2022/11/10 02:07:30;;;;;;;6.88;2.53;;;;;;;11.50;76.05;100758.25;10384266;28;20141;-67
2022/11/10 02:12:37;;;;;;;9.52;2.03;;;;;;;11.49;76.43;100761.97;10358795;28;20041;-68
2022/11/10 02:17:40;;;;;;;7.47;2.25;;;;;;;11.56;76.25;100764.81;10367268;28;20068;-68
2022/11/10 02:22:42;;;;;;;8.35;2.25;;;;;;;11.51;75.82;100770.72;10377944;28;20548;-67
2022/11/10 02:27:43;;;;;;;9.75;2.50;;;;;;;11.48;76.10;100772.91;10379259;28;20510;-68
2022/11/10 02:32:44;;;;;;;8.02;2.35;;;;;;;11.48;76.24;100764.84;10379201;28;20050;-67
2022/11/10 02:37:46;;;;;;;8.50;2.38;;;;;;;11.49;75.89;100775.44;10380013;28;20045;-68
2022/11/10 02:42:47;;;;;;;9.48;2.13;;;;;;;11.46;75.74;100765.00;10383903;28;20073;-68
2022/11/10 02:47:49;;;;;;;9.80;2.00;;;;;;;11.42;75.68;100768.22;10382421;28;20121;-68
2022/11/10 02:52:50;;;;;;;5.80;2.25;;;;;;;11.37;76.10;100773.25;10390309;28;20077;-68
2022/11/10 02:57:52;;;;;;;7.70;2.33;;;;;;;11.29;76.24;100766.91;10388815;28;20140;-67
2022/11/10 03:03:01;;;;;;;12.88;2.20;;;;;;;11.28;75.99;100785.91;10375873;28;20076;-67
2022/11/10 03:08:03;;;;;;;7.03;2.65;;;;;;;11.25;76.00;100808.59;10382681;28;20046;-67
2022/11/10 03:13:04;;;;;;;15.70;2.38;;;;;;;11.17;76.38;100813.16;10392203;28;20522;-67
2022/11/10 03:18:06;;;;;;;7.85;2.47;;;;;;;11.18;76.15;100810.28;10389779;28;20140;-67
2022/11/10 03:23:07;;;;;;;9.10;2.45;;;;;;;11.17;76.27;100816.66;10386600;28;20145;-67
2022/11/10 03:28:09;;;;;;;11.95;2.90;;;;;;;11.08;76.47;100823.91;10387901;28;20734;-67
2022/11/10 03:33:11;;;;;;;9.45;1.52;;;;;;;11.01;76.45;100836.34;10385000;28;20488;-67
2022/11/10 03:38:12;;;;;;;10.30;3.45;;;;;;;11.01;76.56;100841.72;10393949;28;20275;-67
2022/11/10 03:43:14;;;;;;;13.43;3.17;;;;;;;11.01;76.47;100841.72;10370190;28;20104;-67
2022/11/10 03:48:15;;;;;;;6.75;2.97;;;;;;;10.96;76.92;100848.59;10386255;28;20084;-67
2022/11/10 03:53:16;;;;;;;8.25;2.80;;;;;;;11.04;76.26;100848.63;10387872;28;20053;-67
2022/11/10 03:58:18;;;;;;;17.08;3.55;;;;;;;11.04;76.54;100865.63;10384728;28;20050;-67
2022/11/10 04:03:20;;;;;;;10.93;4.10;;;;;;;10.97;76.50;100871.81;10382399;28;20049;-67
2022/11/10 04:19:01;;;;;;;17.58;7.50;;;;;;;10.94;76.47;100893.66;10386166;28;20053;-67
2022/11/10 04:24:03;;;;;;;18.10;7.72;;;;;;;10.90;76.45;100903.94;10378375;28;20152;-67
2022/11/10 04:29:09;;;;;;;17.05;8.43;;;;;;;10.90;76.44;100902.06;10382796;28;20140;-68
2022/11/10 04:34:13;;;;;;;17.35;8.38;;;;;;;10.88;76.27;100900.53;10378403;28;20069;-67
2022/11/10 04:39:15;;;;;;;17.02;8.60;;;;;;;10.91;75.97;100890.28;10384716;28;20049;-67
2022/11/10 04:44:16;;;;;;;18.13;8.43;;;;;;;10.88;75.88;100904.09;10383853;28;20053;-67
2022/11/10 04:49:17;;;;;;;17.45;8.82;;;;;;;10.82;76.08;100904.75;10383818;28;20060;-67
2022/11/10 04:54:19;;;;;;;16.77;6.75;;;;;;;10.86;75.92;100916.00;10378430;28;20848;-67
2022/11/10 04:59:20;;;;;;;17.50;4.97;;;;;;;10.84;75.85;100923.38;10380104;28;20130;-67
2022/11/10 05:04:22;;;;;;;10.90;4.03;;;;;;;10.83;76.21;100946.75;10363676;28;20136;-67
2022/11/10 05:09:23;;;;;;;15.73;4.47;;;;;;;10.82;76.18;100947.78;10378677;28;20045;-67
2022/11/10 05:14:25;;;;;;;11.82;3.30;;;;;;;10.84;75.98;100950.28;10384632;28;20136;-67
2022/11/10 05:19:26;;;;;;;7.60;2.50;;;;;;;10.73;75.86;100970.25;10373121;28;20175;-67
2022/11/10 05:24:27;;;;;;;7.20;2.70;;;;;;;10.68;76.23;100965.38;10384283;28;20473;-67
2022/11/10 05:29:29;;;;;;;9.50;2.40;;;;;;;10.70;75.92;100975.94;10388448;28;20831;-67
2022/11/10 05:34:30;;;;;;;10.57;2.83;;;;;;;10.71;76.16;100994.59;10389222;28;20063;-67
2022/11/10 05:39:32;;;;;;;7.90;3.03;;;;;;;10.70;76.09;101009.06;10387515;28;20613;-67
2022/11/10 05:44:33;;;;;;;7.80;3.50;;;;;;;10.69;75.68;101011.91;10391274;28;20121;-67
2022/11/10 05:49:34;;;;;;;10.02;3.38;;;;;;;10.72;75.52;101014.25;10381998;28;20049;-67
2022/11/10 05:54:36;;;;;;;15.15;3.22;;;;;;;10.67;75.16;101027.38;10380127;28;20155;-67
2022/11/10 05:59:37;;;;;;;9.90;2.97;;;;;;;10.61;75.32;101042.28;10383832;28;20523;-67
2022/11/10 06:04:38;;;;;;;11.02;2.70;;;;;;;10.52;75.22;101059.34;10365830;28;20144;-67
2022/11/10 06:09:40;;;;;;;9.32;2.83;;;;;;;10.47;75.41;101057.16;10379513;28;20125;-67
2022/11/10 06:14:41;;;;;;;11.57;3.08;;;;;;;10.43;75.30;101082.66;10385893;28;20124;-67
2022/11/10 06:19:43;;;;;;;9.27;3.83;;;;;;;10.40;75.14;101093.72;10389925;28;20038;-67
2022/11/10 06:24:44;;;;;;;10.20;4.20;;;;;;;10.28;75.67;101100.31;10390794;28;20128;-67
2022/11/10 06:29:45;;;;;;;10.57;3.13;;;;;;;10.34;75.93;101117.69;10388939;28;20081;-65
2022/11/10 06:34:47;;;;;;;9.77;3.45;;;;;;;10.36;75.82;101127.28;10388081;28;20075;-65
2022/11/10 06:39:49;;;;;;;11.63;3.78;;;;;;;10.36;75.78;101127.28;10388172;28;20074;-64
2022/11/10 06:44:50;;;;;;;12.50;3.85;;;;;;;10.34;75.99;101129.28;10387274;28;20571;-65
2022/11/10 06:49:52;;;;;;;17.33;5.68;;;;;;;10.30;76.07;101136.78;10393291;28;20069;-65
2022/11/10 06:54:53;;;;;;;12.88;4.40;;;;;;;10.35;75.98;101133.66;10398227;28;20147;-65
2022/11/10 06:59:55;;;;;;;15.40;4.90;;;;;;;10.29;76.37;101142.31;10389543;28;20060;-66
2022/11/10 07:04:56;;;;;;;21.00;6.38;;;;;;;10.30;76.32;101158.28;10395236;28;20073;-67
2022/11/10 07:09:57;;;;;;;11.98;6.22;;;;;;;10.19;76.69;101180.00;10391194;28;20091;-63
2022/11/10 07:15:06;;;;;;;16.35;6.03;;;;;;;10.19;76.88;101195.25;10392499;28;20056;-59
2022/11/10 07:20:09;;;;;;;15.45;5.47;;;;;;;10.19;76.95;101204.19;10394353;28;20058;-59
2022/11/10 07:25:11;;;;;;;16.50;6.00;;;;;;;10.30;76.79;101216.56;10390970;28;20114;-59
2022/11/10 07:30:12;;;;;;;11.70;5.38;;;;;;;10.40;76.94;101236.16;10390599;28;20381;-59
2022/11/10 07:35:14;;;;;;;11.93;4.93;;;;;;;10.47;76.92;101239.94;10393295;28;20084;-59
2022/11/10 07:40:15;;;;;;;16.33;5.47;;;;;;;10.59;76.91;101240.56;10393413;28;20120;-59
2022/11/10 07:45:16;;;;;;;18.02;5.03;;;;;;;10.60;76.77;101236.84;10397992;28;20462;-59
2022/11/10 07:50:18;;;;;;;16.65;6.28;;;;;;;10.72;76.81;101253.59;10399943;28;20068;-59
2022/11/10 07:55:20;;;;;;;12.13;5.90;;;;;;;10.75;76.67;101269.44;10394666;28;20136;-58
2022/11/10 08:00:22;;;;;;;14.07;5.53;;;;;;;10.83;76.73;101282.94;10392492;28;20046;-59
2022/11/10 08:05:23;;;;;;;12.23;5.20;;;;;;;10.90;76.94;101280.50;10394042;28;20069;-59
2022/11/10 08:10:26;;;;;;;11.48;4.68;;;;;;;10.96;76.77;101273.63;10392080;28;20137;-59
2022/11/10 08:15:28;;;;;;;13.38;4.53;;;;;;;10.91;77.20;101277.63;10391522;28;20049;-59
2022/11/10 08:20:30;;;;;;;17.13;5.15;;;;;;;11.02;76.70;101279.25;10392118;28;20084;-59
2022/11/10 08:25:34;;;;;;;17.30;6.40;;;;;;;11.06;76.92;101291.38;10388471;28;20073;-59
2022/11/10 08:30:38;;;;;;;14.05;6.15;;;;;;;11.13;76.98;101286.22;10389120;28;20076;-59
2022/11/10 08:35:42;;;;;;;22.70;8.80;;;;;;;11.24;76.59;101282.44;10392131;28;20045;-59
2022/11/10 08:40:44;;;;;;;12.05;6.30;;;;;;;11.30;76.70;101295.25;10389278;28;20100;-58
2022/11/10 08:45:45;;;;;;;11.95;5.95;;;;;;;11.37;76.69;101293.63;10390952;28;20077;-59
2022/11/10 08:50:48;;;;;;;12.90;6.35;;;;;;;11.45;76.27;101298.22;10391894;28;20073;-58
2022/11/10 08:55:51;;;;;;;17.83;6.10;;;;;;;11.45;76.27;101317.94;10383935;28;20038;-59
2022/11/10 09:00:52;;;;;;;14.40;6.25;;;;;;;11.44;76.40;101324.28;10387164;28;20049;-59
2022/11/10 09:05:53;;;;;;;17.30;7.32;;;;;;;11.47;76.61;101334.75;10386181;28;20049;-59
2022/11/10 09:11:03;;;;;;;16.20;7.47;;;;;;;11.42;76.51;101330.84;10392293;28;20048;-59
2022/11/10 09:16:05;;;;;;;14.60;6.20;;;;;;;11.48;76.04;101355.28;10391215;28;20089;-67
2022/11/10 09:21:10;;;;;;;14.68;7.13;;;;;;;11.47;76.09;101347.34;10369448;28;20060;-68
2022/11/10 09:26:12;;;;;;;17.70;6.88;;;;;;;11.61;75.90;101352.19;10386083;28;20053;-72
2022/11/10 09:31:13;;;;;;;18.13;7.30;;;;;;;11.71;75.78;101358.31;10384106;28;20084;-68
2022/11/10 09:36:14;;;;;;;12.02;5.07;;;;;;;11.82;76.05;101367.13;10371269;28;20076;-66
2022/11/10 09:41:16;;;;;;;12.43;4.93;;;;;;;11.99;75.33;101376.19;10386845;28;20087;-68
2022/11/10 09:46:30;;;;;;;9.38;3.47;;;;;;;12.04;75.23;101384.63;10387415;28;20045;-68
2022/11/10 09:51:37;;;;;;;9.07;3.28;;;;;;;12.22;75.24;101393.50;10370683;28;20531;-68
2022/11/10 09:56:44;;;;;;;8.45;3.97;;;;;;;12.46;74.91;101400.84;10389834;28;20141;-66
2022/11/10 10:02:07;;;;;;;9.98;3.15;;;;;;;12.60;74.38;101415.56;10383865;28;20136;-66
2022/11/10 10:07:23;;;;;;;9.68;3.10;;;;;;;12.76;74.48;101408.53;10382441;28;20134;-68
2022/11/10 10:12:41;;;;;;;8.85;2.47;;;;;;;12.90;74.08;101400.63;10383449;28;20053;-67
2022/11/10 10:18:06;;;;;;;8.77;2.30;;;;;;;13.11;73.81;101407.41;10379665;28;20128;-65
2022/11/10 10:23:24;;;;;;;7.15;2.15;;;;;;;13.23;73.55;101416.03;10380914;28;20136;-67
2022/11/10 10:28:47;;;;;;;;;;;;;;;13.25;74.17;101419.41;10379694;28;20393;-68
2022/11/10 10:33:49;;;;;;;9.95;2.53;;;;;;;13.34;73.27;101418.44;10379741;28;20534;-69
2022/11/10 10:38:54;;;;;;;10.43;1.85;;;;;;;13.40;72.79;101411.53;10379152;28;20138;-69
2022/11/10 10:43:58;;;;;;;6.32;2.13;;;;;;;13.51;72.53;101419.31;10365728;28;20080;-67
2022/11/10 10:49:20;;;;;;;10.10;2.63;;;;;;;13.63;71.85;101414.41;10383528;28;20111;-66
2022/11/10 10:54:32;;;;;;;8.43;2.13;;;;;;;13.72;71.44;101415.22;10382944;28;20643;-68
2022/11/10 10:59:33;;;;;;;7.90;2.95;;;;;;;13.73;71.57;101416.94;10383176;28;20038;-67
2022/11/10 11:04:36;;;;;;;10.20;1.70;;;;;;;13.73;71.52;101416.94;10380637;28;20128;-68
2022/11/10 11:09:42;;;;;;;6.85;2.67;;;;;;;13.93;71.10;101428.22;10388024;28;20069;-66
2022/11/10 11:14:44;;;;;;;8.95;2.60;;;;;;;14.13;70.54;101426.81;10393221;28;20124;-68
2022/11/10 11:19:53;;;;;;;10.70;2.22;;;;;;;14.36;70.23;101431.50;10386456;28;20053;-68
2022/11/10 11:25:00;;;;;;;9.18;1.95;;;;;;;14.49;69.88;101429.06;10387437;28;20104;-66
2022/11/10 11:30:09;;;;;;;5.20;1.73;;;;;;;14.55;69.29;101432.94;10389023;28;20050;-66
2022/11/10 11:35:28;;;;;;;8.57;2.28;;;;;;;14.61;68.95;101435.84;10376853;28;20049;-69
2022/11/10 11:40:45;;;;;;;12.20;1.80;;;;;;;14.79;68.80;101427.47;10387005;28;20129;-69
2022/11/10 11:45:54;;;;;;;8.52;1.55;;;;;;;14.86;68.63;101436.53;10384735;28;20248;-66
2022/11/10 11:51:07;;;;;;;12.00;1.80;;;;;;;15.10;67.82;101437.41;10394616;28;20140;-64
2022/11/10 11:56:21;;;;;;;11.13;1.17;;;;;;;15.15;67.32;101435.03;10395148;28;20042;-66
2022/11/10 12:01:38;;;;;;;10.32;1.33;;;;;;;15.31;67.21;101434.06;10387936;28;20133;-68
2022/11/10 12:07:10;;;;;;;8.07;1.10;;;;;;;15.30;66.96;101442.38;10389935;28;20139;-66
2022/11/10 12:12:27;;;;;;;3.92;1.00;;;;;;;15.30;66.59;101431.53;10383564;28;20041;-67
2022/11/10 12:17:31;;;;;;;6.93;1.25;;;;;;;15.30;66.40;101434.25;10394530;28;20069;-69
2022/11/10 12:22:51;;;;;;;8.43;1.50;;;;;;;15.42;66.08;101427.38;10383131;28;20073;-65
2022/11/10 12:27:59;;;;;;;5.35;1.23;;;;;;;15.43;65.74;101442.63;10390080;28;20069;-64
2022/11/10 12:33:13;;;;;;;8.35;1.58;;;;;;;15.41;65.52;101437.38;10394624;28;20148;-63
2022/11/10 12:38:41;;;;;;;6.43;1.00;;;;;;;15.47;65.37;101443.94;10389097;28;20132;-66
2022/11/10 12:43:54;;;;;;;8.68;1.70;;;;;;;15.50;65.05;101442.72;10367062;28;20057;-66
2022/11/10 12:49:34;;;;;;;5.25;0.93;;;;;;;15.59;64.80;101445.19;10388810;28;20057;-62
2022/11/10 12:54:38;;;;;;;6.93;1.58;;;;;;;15.58;64.61;101450.78;10390773;28;20399;-66
2022/11/10 12:59:41;;;;;;;5.25;0.88;;;;;;;15.55;64.40;101448.47;10392639;28;20061;-67
2022/11/10 13:04:42;;;;;;;8.63;0.80;;;;;;;15.64;64.16;101456.34;10386646;28;20395;-65
2022/11/10 13:09:44;;;;;;;6.03;0.80;;;;;;;15.72;63.86;101460.00;10389712;28;20075;-68
2022/11/10 13:14:47;;;;;;;11.93;2.28;;;;;;;15.65;63.85;101462.59;10396502;28;20144;-62
2022/11/10 13:19:50;;;;;;;7.38;0.90;;;;;;;15.78;63.73;101456.63;10388949;28;20723;-69
2022/11/10 13:24:51;;;;;;;5.13;0.98;;;;;;;15.75;63.37;101462.38;10383618;28;20105;-68
2022/11/10 13:29:56;;;;;;;6.43;0.70;;;;;;;15.77;63.90;101466.59;10377018;28;20054;-65
2022/11/10 13:35:28;;;;;;;5.07;0.90;;;;;;;15.75;63.44;101465.94;10388499;28;20041;-66
2022/11/10 13:40:34;;;;;;;8.27;0.95;;;;;;;15.85;63.58;101460.25;10388883;28;20098;-66
2022/11/10 13:45:41;;;;;;;7.25;1.45;;;;;;;15.96;63.12;101456.28;10386774;28;20079;-68
2022/11/10 13:51:06;;;;;;;5.50;1.05;;;;;;;16.00;63.05;101465.72;10387813;28;20101;-70
2022/11/10 13:56:26;;;;;;;6.53;0.93;;;;;;;15.91;63.26;101478.50;10389707;28;20041;-67
2022/11/10 14:01:29;;;;;;;5.97;1.00;;;;;;;15.93;62.99;101483.75;10392794;28;20106;-69
2022/11/10 14:06:42;;;;;;;9.25;1.77;;;;;;;15.92;62.92;101482.91;10395705;28;20045;-69
2022/11/10 14:11:48;;;;;;;11.00;3.35;;;;;;;15.94;62.93;101485.44;10387000;28;20124;-69
2022/11/10 14:16:52;;;;;;;8.07;1.53;;;;;;;15.98;63.11;101484.06;10399286;28;20085;-70
2022/11/10 14:22:02;;;;;;;6.65;1.00;;;;;;;16.04;62.99;101483.31;10390821;28;20081;-70
2022/11/10 14:27:06;;;;;;;5.90;1.27;;;;;;;16.07;62.82;101491.06;10355709;28;20467;-67
2022/11/10 14:32:17;;;;;;;9.10;1.30;;;;;;;15.98;62.92;101495.75;10390980;28;20475;-65
2022/11/10 14:37:24;;;;;;;5.15;1.10;;;;;;;16.02;63.16;101499.75;10387354;28;20453;-68
2022/11/10 14:42:29;;;;;;;6.20;1.17;;;;;;;15.95;63.16;101506.09;10395173;28;20069;-69
2022/11/10 14:47:30;;;;;;;6.32;1.77;;;;;;;15.90;63.21;101503.13;10393327;28;20168;-69
2022/11/10 14:52:37;;;;;;;7.95;1.77;;;;;;;15.83;63.16;101508.41;10388381;28;20072;-66
2022/11/10 14:57:39;;;;;;;9.68;1.30;;;;;;;15.80;63.44;101525.06;10394106;28;20491;-67
2022/11/10 15:02:42;;;;;;;13.82;1.70;;;;;;;15.77;63.52;101522.69;10386345;28;20129;-65
2022/11/10 15:07:44;;;;;;;8.13;1.40;;;;;;;15.72;63.35;101533.19;10391554;28;20045;-66
2022/11/10 15:13:32;;;;;;;9.73;1.65;;;;;;;15.70;63.30;101527.09;10390771;28;20111;-66
2022/11/10 15:18:33;;;;;;;10.38;1.40;;;;;;;15.66;63.70;101526.66;10375758;28;20603;-66
2022/11/10 15:23:39;;;;;;;11.05;1.63;;;;;;;15.53;63.66;101529.94;10384782;28;20129;-65
2022/11/10 15:28:41;;;;;;;6.97;1.55;;;;;;;15.41;63.74;101531.38;10386704;28;20040;-66
2022/11/10 15:33:48;;;;;;;5.22;1.33;;;;;;;15.36;63.70;101531.91;10399716;28;20136;-69
2022/11/10 15:39:14;;;;;;;6.65;2.30;;;;;;;15.24;64.04;101533.31;10386299;28;20665;-68
2022/11/10 15:44:21;;;;;;;6.38;2.17;;;;;;;15.16;64.05;101542.34;10388952;28;20049;-66
2022/11/10 15:49:30;;;;;;;6.60;1.70;;;;;;;15.04;64.17;101535.63;10389413;28;20549;-69
2022/11/10 15:54:34;;;;;;;8.18;2.00;;;;;;;14.98;64.35;101555.28;10386322;28;20371;-66
2022/11/10 15:59:35;;;;;;;13.13;3.03;;;;;;;14.88;64.23;101560.91;10392346;28;20455;-65
2022/11/10 16:04:37;;;;;;;9.82;1.95;;;;;;;14.77;64.52;101572.09;10389295;28;20041;-64
2022/11/10 16:09:38;;;;;;;8.77;1.80;;;;;;;14.65;64.51;101566.22;10390352;28;20080;-65
2022/11/10 16:14:42;;;;;;;9.75;1.80;;;;;;;14.59;64.80;101569.59;10388734;28;20125;-66
2022/11/10 16:19:45;;;;;;;5.95;2.25;;;;;;;14.47;64.93;101555.56;10387041;28;20450;-67
2022/11/10 16:24:47;;;;;;;9.60;2.08;;;;;;;14.32;65.10;101563.53;10383789;28;20073;-67
2022/11/10 16:29:48;;;;;;;4.72;2.20;;;;;;;14.27;65.48;101574.03;10386877;28;20055;-65
2022/11/10 16:34:49;;;;;;;12.23;3.00;;;;;;;14.18;65.54;101577.72;10387169;28;20153;-67
2022/11/10 16:39:51;;;;;;;7.80;3.13;;;;;;;13.96;66.08;101577.41;10384098;28;20132;-66
2022/11/10 16:44:53;;;;;;;7.93;2.60;;;;;;;13.94;66.09;101575.88;10389289;28;20088;-66
2022/11/10 16:49:54;;;;;;;9.75;2.25;;;;;;;13.84;66.23;101598.53;10382910;28;20033;-66
2022/11/10 16:54:55;;;;;;;14.10;3.28;;;;;;;13.83;66.20;101585.16;10383952;28;20149;-67
2022/11/10 16:59:57;;;;;;;9.90;3.25;;;;;;;13.80;66.32;101597.16;10380759;28;20051;-67
2022/11/10 17:04:58;;;;;;;9.30;3.42;;;;;;;13.69;66.63;101617.22;10379116;28;20465;-66
2022/11/10 17:10:00;;;;;;;10.90;3.03;;;;;;;13.63;66.87;101627.88;10387730;28;20842;-65
2022/11/10 17:15:02;;;;;;;8.43;2.22;;;;;;;13.56;66.84;101629.53;10383619;28;20432;-66
2022/11/10 17:20:05;;;;;;;10.02;3.17;;;;;;;13.53;67.33;101630.69;10382264;28;20076;-67
2022/11/10 17:25:14;;;;;;;7.50;3.30;;;;;;;13.49;67.07;101630.19;10381417;28;20060;-67
2022/11/10 17:30:16;;;;;;;7.38;3.85;;;;;;;13.45;66.99;101645.03;10389414;28;20455;-67
2022/11/10 17:35:17;;;;;;;11.88;4.43;;;;;;;13.36;67.11;101651.38;10386880;28;20057;-66
2022/11/10 17:40:21;;;;;;;15.48;5.00;;;;;;;13.28;67.69;101660.25;10382818;28;20131;-66
2022/11/10 17:45:26;;;;;;;9.10;3.30;;;;;;;13.24;67.53;101667.00;10384503;28;20454;-67
2022/11/10 17:50:30;;;;;;;10.77;4.60;;;;;;;13.14;67.88;101660.03;10383619;28;20152;-67
2022/11/10 17:55:31;;;;;;;37.63;6.57;;;;;;;13.02;68.33;101663.00;10382259;28;20729;-67
2022/11/10 18:00:34;;;;;;;8.45;4.15;;;;;;;13.02;68.24;101670.25;10382585;28;20395;-67
2022/11/10 18:05:37;;;;;;;10.98;5.07;;;;;;;12.94;68.19;101649.47;10382779;28;20068;-64
2022/11/10 18:10:42;;;;;;;11.73;4.07;;;;;;;12.86;68.44;101634.06;10386360;28;20666;-67
2022/11/10 18:15:45;;;;;;;15.98;4.30;;;;;;;12.81;68.41;101646.34;10392762;28;20063;-66
2022/11/10 18:20:46;;;;;;;10.10;4.38;;;;;;;12.76;68.44;101657.63;10393210;28;20149;-66
2022/11/10 18:25:48;;;;;;;12.93;4.63;;;;;;;12.69;68.83;101664.63;10394469;28;20457;-66
2022/11/10 18:30:49;;;;;;;12.80;4.38;;;;;;;12.63;69.04;101679.59;10393739;28;20137;-67
2022/11/10 18:35:51;;;;;;;12.90;5.63;;;;;;;12.67;68.72;101693.63;10391119;28;20136;-67
2022/11/10 18:40:52;;;;;;;15.95;6.25;;;;;;;12.65;68.47;101682.13;10392630;28;20045;-66
2022/11/10 18:45:53;;;;;;;16.75;6.60;;;;;;;12.58;68.55;101681.94;10390592;28;20132;-67
2022/11/10 18:50:55;;;;;;;13.18;4.90;;;;;;;12.45;69.28;101697.66;10388678;28;20132;-66
2022/11/10 18:55:56;;;;;;;15.98;5.45;;;;;;;12.34;69.19;101690.63;10392013;28;20045;-67
2022/11/10 19:01:03;;;;;;;11.45;4.57;;;;;;;12.15;69.80;101688.13;10390373;28;20103;-67
2022/11/10 19:06:05;;;;;;;14.05;5.50;;;;;;;12.13;69.99;101711.69;10393704;28;20038;-66
2022/11/10 19:11:08;;;;;;;12.75;4.88;;;;;;;12.06;70.17;101711.41;10382707;28;20136;-67
2022/11/10 19:16:11;;;;;;;17.33;7.18;;;;;;;11.99;70.42;101719.28;10389768;28;20045;-67
2022/11/10 19:21:19;;;;;;;18.05;6.80;;;;;;;11.97;70.36;101718.59;10392691;28;20059;-67
2022/11/10 19:26:21;;;;;;;19.08;6.43;;;;;;;11.93;70.86;101709.09;10383430;28;20137;-67
2022/11/10 19:31:24;;;;;;;16.95;6.88;;;;;;;11.92;70.63;101715.47;10389793;28;20046;-66
2022/11/10 19:36:27;;;;;;;16.85;7.10;;;;;;;11.79;70.95;101717.66;10389567;28;20052;-67
2022/11/10 19:41:30;;;;;;;15.90;6.72;;;;;;;11.68;70.86;101708.78;10387594;28;20068;-66
2022/11/10 19:46:35;;;;;;;17.42;7.63;;;;;;;11.63;71.04;101712.91;10391603;28;20137;-66
2022/11/10 19:51:36;;;;;;;16.50;7.25;;;;;;;11.57;71.08;101724.28;10370688;28;20056;-66
2022/11/10 19:56:38;;;;;;;19.60;8.13;;;;;;;11.49;71.77;101744.75;10383906;28;20714;-66
2022/11/10 20:01:39;;;;;;;18.17;8.00;;;;;;;11.51;71.32;101747.25;10378197;28;20070;-66
2022/11/10 20:06:41;;;;;;;16.13;6.78;;;;;;;11.46;71.76;101742.31;10385695;28;20458;-66
2022/11/10 20:11:44;;;;;;;16.27;6.60;;;;;;;11.41;71.74;101755.38;10391218;28;20046;-67
2022/11/10 20:16:46;;;;;;;18.10;8.55;;;;;;;11.39;71.82;101756.53;10393693;28;20131;-67
2022/11/10 20:21:47;;;;;;;13.90;7.38;;;;;;;11.40;71.49;101742.91;10380687;28;20077;-67
2022/11/10 20:26:49;;;;;;;17.50;7.82;;;;;;;11.23;71.94;101749.06;10391938;28;20073;-66
2022/11/10 20:31:51;;;;;;;19.67;7.55;;;;;;;11.11;72.43;101741.16;10392432;28;20411;-66
2022/11/10 20:36:54;;;;;;;34.40;10.13;;;;;;;11.08;72.40;101748.69;10390178;28;20124;-67
2022/11/10 20:41:55;;;;;;;21.20;8.27;;;;;;;11.04;72.40;101744.59;10397902;28;20766;-67
2022/11/10 20:46:57;;;;;;;22.17;7.10;;;;;;;11.05;72.41;101748.97;10372132;28;20419;-66
2022/11/10 20:51:59;;;;;;;20.23;7.43;;;;;;;11.08;72.35;101762.97;10387663;28;20072;-65
2022/11/10 20:57:00;;;;;;;21.50;9.02;;;;;;;11.10;71.99;101779.00;10393964;28;20462;-67
2022/11/10 21:02:02;;;;;;;17.33;8.32;;;;;;;11.06;72.40;101777.59;10367240;28;20124;-68
2022/11/10 21:07:03;;;;;;;15.85;7.95;;;;;;;11.05;72.08;101771.31;10388674;28;20042;-67
2022/11/10 21:17:25;;;;;;;26.38;10.82;;;;;;;10.94;72.19;101763.44;10384696;28;20148;-67
2022/11/10 21:22:27;;;;;;;22.10;9.57;;;;;;;10.87;72.67;101773.91;10378041;28;20128;-68
2022/11/10 21:27:28;;;;;;;24.55;9.25;;;;;;;10.87;72.18;101775.75;10385701;28;20446;-68
2022/11/10 21:32:30;;;;;;;21.42;8.90;;;;;;;10.84;72.09;101778.72;10388442;28;20043;-67
2022/11/10 21:37:31;;;;;;;26.52;8.88;;;;;;;10.76;72.55;101773.19;10385134;28;20762;-67
2022/11/10 21:42:33;;;;;;;18.08;8.57;;;;;;;10.61;72.85;101780.84;10384010;28;20042;-69
2022/11/10 21:47:36;;;;;;;20.40;9.60;;;;;;;10.55;73.06;101776.88;10387393;28;20037;-67
2022/11/10 21:52:37;;;;;;;20.58;8.63;;;;;;;10.49;72.96;101774.75;10387027;28;20038;-65
2022/11/10 21:57:38;;;;;;;30.55;10.65;;;;;;;10.46;73.45;101777.72;10382033;28;20107;-68
2022/11/10 22:02:40;;;;;;;22.73;9.32;;;;;;;10.45;73.04;101767.97;10382781;28;20049;-67
2022/11/10 22:07:41;;;;;;;24.23;9.23;;;;;;;10.42;73.27;101787.06;10373737;28;20135;-67
2022/11/10 22:24:21;;;;;;;23.73;9.05;;;;;;;10.20;73.56;101780.06;10381795;28;20070;-66
2022/11/10 22:28:45;;;;;;;22.90;9.52;;;;;;;10.23;73.10;101777.06;10382836;28;20073;-66
2022/11/10 22:33:46;;;;;;;17.98;8.05;;;;;;;10.16;73.22;101765.19;10389078;28;20136;-67
2022/11/10 22:38:48;;;;;;;14.93;7.65;;;;;;;10.05;73.74;101779.56;10381344;28;20220;-66
2022/11/10 22:44:08;;;;;;;17.58;7.70;;;;;;;10.04;73.88;101776.06;10385332;28;20104;-67
2022/11/10 22:49:12;;;;;;;16.20;7.90;;;;;;;10.02;73.80;101798.69;10382107;28;20477;-67
2022/11/10 22:54:16;;;;;;;20.25;8.85;;;;;;;10.10;73.96;101801.53;10381994;28;20085;-67
2022/11/10 22:59:18;;;;;;;19.42;9.35;;;;;;;10.05;73.62;101795.69;10388567;28;20049;-67
2022/11/10 23:04:19;;;;;;;20.48;8.30;;;;;;;10.08;73.56;101795.44;10388081;28;20111;-66
2022/11/10 23:09:20;;;;;;;21.60;9.13;;;;;;;10.08;73.36;101790.91;10389291;28;20068;-67
2022/11/10 23:14:22;;;;;;;24.23;9.45;;;;;;;10.02;73.64;101786.09;10387108;28;20045;-67
2022/11/10 23:19:23;;;;;;;27.50;9.52;;;;;;;10.01;73.88;101788.91;10389758;28;20065;-65
2022/11/10 23:24:24;;;;;;;21.67;10.35;;;;;;;10.02;73.78;101786.09;10385717;28;20049;-66
2022/11/10 23:29:26;;;;;;;22.17;9.65;;;;;;;9.95;73.86;101798.34;10390526;28;20049;-66
2022/11/10 23:34:27;;;;;;;21.55;8.63;;;;;;;9.97;73.77;101815.19;10386449;28;20037;-66
2022/11/10 23:39:29;;;;;;;19.70;8.63;;;;;;;9.95;73.72;101819.00;10379755;28;20095;-65